sensor_id;sensor_type;location;lat;lon;timestamp;P1;durP1;ratioP1;P2;durP2;ratioP2
16115;SDS011;8162;47.104;15.432;2023-03-14T00:02:32;5.10;;;3.57;;
16115;SDS011;8162;47.104;15.432;2023-03-14T00:05:33;4.47;;;3.50;;
16115;SDS011;8162;47.104;15.432;2023-03-14T00:08:34;5.90;;;3.37;;
16115;SDS011;8162;47.104;15.432;2023-03-14T00:11:36;5.53;;;3.60;;
16115;SDS011;8162;47.104;15.432;2023-03-14T00:14:37;4.70;;;3.63;;
16115;SDS011;8162;47.104;15.432;2023-03-14T00:17:38;4.87;;;3.30;;
16115;SDS011;8162;47.104;15.432;2023-03-14T00:20:39;4.73;;;3.47;;
16115;SDS011;8162;47.104;15.432;2023-03-14T00:23:41;6.13;;;4.00;;
16115;SDS011;8162;47.104;15.432;2023-03-14T00:26:42;6.47;;;3.83;;
16115;SDS011;8162;47.104;15.432;2023-03-14T00:29:43;8.83;;;3.80;;
16115;SDS011;8162;47.104;15.432;2023-03-14T00:32:44;6.43;;;3.90;;
16115;SDS011;8162;47.104;15.432;2023-03-14T00:35:55;7.13;;;3.87;;
16115;SDS011;8162;47.104;15.432;2023-03-14T00:38:58;5.93;;;3.83;;
16115;SDS011;8162;47.104;15.432;2023-03-14T00:41:59;6.07;;;4.27;;
16115;SDS011;8162;47.104;15.432;2023-03-14T00:45:00;5.40;;;4.40;;
16115;SDS011;8162;47.104;15.432;2023-03-14T00:48:01;8.77;;;4.90;;
16115;SDS011;8162;47.104;15.432;2023-03-14T00:51:06;5.67;;;4.30;;
16115;SDS011;8162;47.104;15.432;2023-03-14T00:54:07;8.63;;;4.77;;
16115;SDS011;8162;47.104;15.432;2023-03-14T00:57:08;8.30;;;4.13;;
16115;SDS011;8162;47.104;15.432;2023-03-14T01:00:09;4.90;;;3.97;;
16115;SDS011;8162;47.104;15.432;2023-03-14T01:03:12;6.10;;;3.83;;
16115;SDS011;8162;47.104;15.432;2023-03-14T01:06:14;4.57;;;3.80;;
16115;SDS011;8162;47.104;15.432;2023-03-14T01:09:16;8.80;;;4.30;;
16115;SDS011;8162;47.104;15.432;2023-03-14T01:12:17;4.70;;;3.03;;
16115;SDS011;8162;47.104;15.432;2023-03-14T01:15:18;6.40;;;4.50;;
16115;SDS011;8162;47.104;15.432;2023-03-14T01:18:19;6.57;;;4.37;;
16115;SDS011;8162;47.104;15.432;2023-03-14T01:21:22;8.27;;;4.17;;
16115;SDS011;8162;47.104;15.432;2023-03-14T01:24:24;4.87;;;3.90;;
16115;SDS011;8162;47.104;15.432;2023-03-14T01:27:25;8.37;;;4.03;;
16115;SDS011;8162;47.104;15.432;2023-03-14T01:30:26;5.93;;;4.23;;
16115;SDS011;8162;47.104;15.432;2023-03-14T01:33:27;6.13;;;4.37;;
16115;SDS011;8162;47.104;15.432;2023-03-14T01:36:28;6.73;;;4.67;;
16115;SDS011;8162;47.104;15.432;2023-03-14T01:39:29;5.33;;;4.40;;
16115;SDS011;8162;47.104;15.432;2023-03-14T01:42:30;7.53;;;4.17;;
16115;SDS011;8162;47.104;15.432;2023-03-14T01:48:55;5.00;;;4.10;;
16115;SDS011;8162;47.104;15.432;2023-03-14T01:55:00;6.63;;;4.30;;
16115;SDS011;8162;47.104;15.432;2023-03-14T01:58:04;6.60;;;3.97;;
16115;SDS011;8162;47.104;15.432;2023-03-14T02:01:05;7.43;;;4.37;;
16115;SDS011;8162;47.104;15.432;2023-03-14T02:04:07;9.03;;;5.00;;
16115;SDS011;8162;47.104;15.432;2023-03-14T02:07:17;4.40;;;3.97;;
16115;SDS011;8162;47.104;15.432;2023-03-14T02:10:20;4.90;;;3.87;;
16115;SDS011;8162;47.104;15.432;2023-03-14T02:13:23;4.50;;;3.40;;
16115;SDS011;8162;47.104;15.432;2023-03-14T02:16:24;4.87;;;4.17;;
16115;SDS011;8162;47.104;15.432;2023-03-14T02:20:10;4.80;;;4.13;;
16115;SDS011;8162;47.104;15.432;2023-03-14T02:22:49;4.20;;;3.53;;
16115;SDS011;8162;47.104;15.432;2023-03-14T02:25:51;6.10;;;4.30;;
16115;SDS011;8162;47.104;15.432;2023-03-14T02:28:54;4.53;;;3.70;;
16115;SDS011;8162;47.104;15.432;2023-03-14T02:31:55;6.07;;;3.80;;
16115;SDS011;8162;47.104;15.432;2023-03-14T02:34:57;6.90;;;3.93;;
16115;SDS011;8162;47.104;15.432;2023-03-14T02:41:11;6.20;;;4.23;;
16115;SDS011;8162;47.104;15.432;2023-03-14T02:44:12;6.00;;;4.00;;
16115;SDS011;8162;47.104;15.432;2023-03-14T02:47:13;5.57;;;3.33;;
16115;SDS011;8162;47.104;15.432;2023-03-14T02:50:18;5.23;;;3.40;;
16115;SDS011;8162;47.104;15.432;2023-03-14T02:53:39;9.63;;;4.47;;
16115;SDS011;8162;47.104;15.432;2023-03-14T02:56:41;7.43;;;4.53;;
16115;SDS011;8162;47.104;15.432;2023-03-14T02:59:42;5.10;;;3.80;;
16115;SDS011;8162;47.104;15.432;2023-03-14T03:02:43;5.90;;;4.27;;
16115;SDS011;8162;47.104;15.432;2023-03-14T03:05:47;5.17;;;4.47;;
16115;SDS011;8162;47.104;15.432;2023-03-14T03:08:48;6.13;;;4.40;;
16115;SDS011;8162;47.104;15.432;2023-03-14T03:11:49;7.93;;;4.33;;
16115;SDS011;8162;47.104;15.432;2023-03-14T03:14:50;8.30;;;4.03;;
16115;SDS011;8162;47.104;15.432;2023-03-14T03:17:51;7.57;;;4.47;;
16115;SDS011;8162;47.104;15.432;2023-03-14T03:20:52;6.53;;;4.53;;
16115;SDS011;8162;47.104;15.432;2023-03-14T03:23:53;5.33;;;4.30;;
16115;SDS011;8162;47.104;15.432;2023-03-14T03:26:55;5.63;;;4.27;;
16115;SDS011;8162;47.104;15.432;2023-03-14T03:29:56;8.70;;;4.60;;
16115;SDS011;8162;47.104;15.432;2023-03-14T03:32:57;6.27;;;4.13;;
16115;SDS011;8162;47.104;15.432;2023-03-14T03:35:58;5.67;;;3.83;;
16115;SDS011;8162;47.104;15.432;2023-03-14T03:38:59;5.77;;;4.13;;
16115;SDS011;8162;47.104;15.432;2023-03-14T03:42:00;7.10;;;4.67;;
16115;SDS011;8162;47.104;15.432;2023-03-14T03:45:01;5.90;;;4.80;;
16115;SDS011;8162;47.104;15.432;2023-03-14T03:48:02;5.10;;;4.17;;
16115;SDS011;8162;47.104;15.432;2023-03-14T03:51:04;7.87;;;4.57;;
16115;SDS011;8162;47.104;15.432;2023-03-14T03:54:05;5.70;;;4.50;;
16115;SDS011;8162;47.104;15.432;2023-03-14T03:57:06;4.93;;;4.20;;
16115;SDS011;8162;47.104;15.432;2023-03-14T04:00:07;5.50;;;4.13;;
16115;SDS011;8162;47.104;15.432;2023-03-14T04:03:11;8.10;;;5.10;;
16115;SDS011;8162;47.104;15.432;2023-03-14T04:06:13;5.87;;;4.03;;
16115;SDS011;8162;47.104;15.432;2023-03-14T04:09:14;8.60;;;4.80;;
16115;SDS011;8162;47.104;15.432;2023-03-14T04:12:15;5.73;;;4.27;;
16115;SDS011;8162;47.104;15.432;2023-03-14T04:15:16;5.57;;;3.97;;
16115;SDS011;8162;47.104;15.432;2023-03-14T04:18:17;7.33;;;4.23;;
16115;SDS011;8162;47.104;15.432;2023-03-14T04:21:18;6.13;;;4.83;;
16115;SDS011;8162;47.104;15.432;2023-03-14T04:24:19;6.70;;;4.30;;
16115;SDS011;8162;47.104;15.432;2023-03-14T04:27:21;4.77;;;3.70;;
16115;SDS011;8162;47.104;15.432;2023-03-14T04:30:22;5.53;;;4.67;;
16115;SDS011;8162;47.104;15.432;2023-03-14T04:33:23;6.37;;;4.40;;
16115;SDS011;8162;47.104;15.432;2023-03-14T04:36:24;5.87;;;4.23;;
16115;SDS011;8162;47.104;15.432;2023-03-14T04:39:25;7.47;;;4.37;;
16115;SDS011;8162;47.104;15.432;2023-03-14T04:42:26;6.90;;;4.43;;
16115;SDS011;8162;47.104;15.432;2023-03-14T04:45:27;6.20;;;3.73;;
16115;SDS011;8162;47.104;15.432;2023-03-14T04:48:28;5.87;;;4.47;;
16115;SDS011;8162;47.104;15.432;2023-03-14T04:51:29;4.70;;;3.80;;
16115;SDS011;8162;47.104;15.432;2023-03-14T04:54:30;5.43;;;4.07;;
16115;SDS011;8162;47.104;15.432;2023-03-14T04:57:31;6.47;;;3.37;;
16115;SDS011;8162;47.104;15.432;2023-03-14T05:00:32;5.50;;;3.93;;
16115;SDS011;8162;47.104;15.432;2023-03-14T05:03:33;5.50;;;3.53;;
16115;SDS011;8162;47.104;15.432;2023-03-14T05:06:36;4.37;;;3.40;;
16115;SDS011;8162;47.104;15.432;2023-03-14T05:09:37;5.33;;;3.27;;
16115;SDS011;8162;47.104;15.432;2023-03-14T05:12:38;3.93;;;3.50;;
16115;SDS011;8162;47.104;15.432;2023-03-14T05:15:39;6.97;;;3.90;;
16115;SDS011;8162;47.104;15.432;2023-03-14T05:18:40;4.93;;;3.53;;
16115;SDS011;8162;47.104;15.432;2023-03-14T05:21:41;7.77;;;3.87;;
16115;SDS011;8162;47.104;15.432;2023-03-14T05:24:42;4.27;;;3.43;;
16115;SDS011;8162;47.104;15.432;2023-03-14T05:27:43;5.67;;;3.90;;
16115;SDS011;8162;47.104;15.432;2023-03-14T05:30:44;8.40;;;3.80;;
16115;SDS011;8162;47.104;15.432;2023-03-14T05:33:45;5.13;;;3.80;;
16115;SDS011;8162;47.104;15.432;2023-03-14T05:36:46;4.97;;;4.00;;
16115;SDS011;8162;47.104;15.432;2023-03-14T05:39:47;4.57;;;3.50;;
16115;SDS011;8162;47.104;15.432;2023-03-14T05:42:48;5.10;;;3.40;;
16115;SDS011;8162;47.104;15.432;2023-03-14T05:45:49;3.83;;;2.93;;
16115;SDS011;8162;47.104;15.432;2023-03-14T05:48:50;9.93;;;4.30;;
16115;SDS011;8162;47.104;15.432;2023-03-14T05:51:51;5.13;;;3.67;;
16115;SDS011;8162;47.104;15.432;2023-03-14T05:54:53;4.53;;;3.77;;
16115;SDS011;8162;47.104;15.432;2023-03-14T05:57:54;6.50;;;3.50;;
16115;SDS011;8162;47.104;15.432;2023-03-14T06:00:55;8.67;;;3.60;;
16115;SDS011;8162;47.104;15.432;2023-03-14T06:03:56;4.97;;;4.17;;
16115;SDS011;8162;47.104;15.432;2023-03-14T06:06:57;7.43;;;4.83;;
16115;SDS011;8162;47.104;15.432;2023-03-14T06:09:58;7.03;;;4.80;;
16115;SDS011;8162;47.104;15.432;2023-03-14T06:12:59;5.57;;;4.37;;
16115;SDS011;8162;47.104;15.432;2023-03-14T06:16:00;5.43;;;4.00;;
16115;SDS011;8162;47.104;15.432;2023-03-14T06:19:01;6.97;;;3.60;;
16115;SDS011;8162;47.104;15.432;2023-03-14T06:22:02;6.70;;;4.87;;
16115;SDS011;8162;47.104;15.432;2023-03-14T06:25:04;8.57;;;4.53;;
16115;SDS011;8162;47.104;15.432;2023-03-14T06:28:05;9.43;;;4.47;;
16115;SDS011;8162;47.104;15.432;2023-03-14T06:31:06;7.30;;;4.63;;
16115;SDS011;8162;47.104;15.432;2023-03-14T06:34:07;7.20;;;4.67;;
16115;SDS011;8162;47.104;15.432;2023-03-14T06:37:08;6.13;;;4.60;;
16115;SDS011;8162;47.104;15.432;2023-03-14T06:40:09;6.23;;;3.70;;
16115;SDS011;8162;47.104;15.432;2023-03-14T06:43:12;8.27;;;4.17;;
16115;SDS011;8162;47.104;15.432;2023-03-14T06:46:13;5.13;;;4.23;;
16115;SDS011;8162;47.104;15.432;2023-03-14T06:49:15;7.83;;;5.27;;
16115;SDS011;8162;47.104;15.432;2023-03-14T06:52:16;8.67;;;4.47;;
16115;SDS011;8162;47.104;15.432;2023-03-14T06:55:17;6.00;;;4.90;;
16115;SDS011;8162;47.104;15.432;2023-03-14T06:58:18;8.27;;;4.33;;
16115;SDS011;8162;47.104;15.432;2023-03-14T07:01:20;8.00;;;4.60;;
16115;SDS011;8162;47.104;15.432;2023-03-14T07:04:22;6.43;;;4.23;;
16115;SDS011;8162;47.104;15.432;2023-03-14T07:07:23;9.93;;;4.53;;
16115;SDS011;8162;47.104;15.432;2023-03-14T07:10:24;8.43;;;4.80;;
16115;SDS011;8162;47.104;15.432;2023-03-14T07:13:25;5.87;;;4.03;;
16115;SDS011;8162;47.104;15.432;2023-03-14T07:16:26;6.03;;;3.90;;
16115;SDS011;8162;47.104;15.432;2023-03-14T07:19:28;6.30;;;3.90;;
16115;SDS011;8162;47.104;15.432;2023-03-14T07:22:30;8.57;;;4.00;;
16115;SDS011;8162;47.104;15.432;2023-03-14T07:25:31;6.27;;;3.80;;
16115;SDS011;8162;47.104;15.432;2023-03-14T07:28:32;5.33;;;3.20;;
16115;SDS011;8162;47.104;15.432;2023-03-14T07:31:33;6.47;;;3.60;;
16115;SDS011;8162;47.104;15.432;2023-03-14T07:34:34;6.70;;;3.50;;
16115;SDS011;8162;47.104;15.432;2023-03-14T07:37:35;5.10;;;3.43;;
16115;SDS011;8162;47.104;15.432;2023-03-14T07:40:36;5.63;;;3.33;;
16115;SDS011;8162;47.104;15.432;2023-03-14T07:43:37;5.40;;;4.07;;
16115;SDS011;8162;47.104;15.432;2023-03-14T07:46:38;5.93;;;3.90;;
16115;SDS011;8162;47.104;15.432;2023-03-14T07:49:39;6.50;;;3.77;;
16115;SDS011;8162;47.104;15.432;2023-03-14T07:52:40;7.10;;;4.07;;
16115;SDS011;8162;47.104;15.432;2023-03-14T07:55:42;5.63;;;3.03;;
16115;SDS011;8162;47.104;15.432;2023-03-14T07:58:43;5.83;;;3.47;;
16115;SDS011;8162;47.104;15.432;2023-03-14T08:01:44;5.77;;;2.70;;
16115;SDS011;8162;47.104;15.432;2023-03-14T08:04:45;3.93;;;2.17;;
16115;SDS011;8162;47.104;15.432;2023-03-14T08:07:46;3.20;;;2.27;;
16115;SDS011;8162;47.104;15.432;2023-03-14T08:10:47;3.73;;;2.43;;
16115;SDS011;8162;47.104;15.432;2023-03-14T08:13:48;4.67;;;2.20;;
16115;SDS011;8162;47.104;15.432;2023-03-14T08:16:50;4.17;;;2.20;;
16115;SDS011;8162;47.104;15.432;2023-03-14T08:19:52;3.07;;;1.90;;
16115;SDS011;8162;47.104;15.432;2023-03-14T08:22:55;2.10;;;1.80;;
16115;SDS011;8162;47.104;15.432;2023-03-14T08:25:56;3.00;;;1.77;;
16115;SDS011;8162;47.104;15.432;2023-03-14T08:28:57;2.90;;;2.00;;
16115;SDS011;8162;47.104;15.432;2023-03-14T08:31:58;2.87;;;2.17;;
16115;SDS011;8162;47.104;15.432;2023-03-14T08:34:59;4.87;;;1.50;;
16115;SDS011;8162;47.104;15.432;2023-03-14T08:38:00;2.57;;;2.10;;
16115;SDS011;8162;47.104;15.432;2023-03-14T08:41:02;2.77;;;1.77;;
16115;SDS011;8162;47.104;15.432;2023-03-14T08:44:03;2.57;;;1.70;;
16115;SDS011;8162;47.104;15.432;2023-03-14T08:47:05;2.03;;;1.83;;
16115;SDS011;8162;47.104;15.432;2023-03-14T08:50:06;2.97;;;2.00;;
16115;SDS011;8162;47.104;15.432;2023-03-14T08:53:07;5.70;;;2.40;;
16115;SDS011;8162;47.104;15.432;2023-03-14T08:56:09;2.50;;;1.90;;
16115;SDS011;8162;47.104;15.432;2023-03-14T08:59:10;3.73;;;2.10;;
16115;SDS011;8162;47.104;15.432;2023-03-14T09:02:11;3.17;;;1.70;;
16115;SDS011;8162;47.104;15.432;2023-03-14T09:05:13;2.83;;;1.87;;
16115;SDS011;8162;47.104;15.432;2023-03-14T09:08:14;4.50;;;2.30;;
16115;SDS011;8162;47.104;15.432;2023-03-14T09:11:15;4.30;;;2.00;;
16115;SDS011;8162;47.104;15.432;2023-03-14T09:14:17;3.50;;;1.83;;
16115;SDS011;8162;47.104;15.432;2023-03-14T09:17:18;3.60;;;2.10;;
16115;SDS011;8162;47.104;15.432;2023-03-14T09:20:19;3.23;;;1.70;;
16115;SDS011;8162;47.104;15.432;2023-03-14T09:23:21;2.87;;;1.50;;
16115;SDS011;8162;47.104;15.432;2023-03-14T09:26:22;6.53;;;2.17;;
16115;SDS011;8162;47.104;15.432;2023-03-14T09:29:23;3.37;;;1.90;;
16115;SDS011;8162;47.104;15.432;2023-03-14T09:32:24;3.63;;;2.10;;
16115;SDS011;8162;47.104;15.432;2023-03-14T09:35:25;4.53;;;2.10;;
16115;SDS011;8162;47.104;15.432;2023-03-14T09:38:26;2.77;;;1.40;;
16115;SDS011;8162;47.104;15.432;2023-03-14T09:41:29;2.10;;;1.80;;
16115;SDS011;8162;47.104;15.432;2023-03-14T09:44:32;3.47;;;1.77;;
16115;SDS011;8162;47.104;15.432;2023-03-14T09:47:34;3.00;;;1.87;;
16115;SDS011;8162;47.104;15.432;2023-03-14T09:50:40;4.57;;;1.93;;
16115;SDS011;8162;47.104;15.432;2023-03-14T09:53:43;3.60;;;1.70;;
16115;SDS011;8162;47.104;15.432;2023-03-14T09:56:44;3.63;;;1.77;;
16115;SDS011;8162;47.104;15.432;2023-03-14T09:59:45;2.20;;;1.60;;
16115;SDS011;8162;47.104;15.432;2023-03-14T10:02:52;2.50;;;1.50;;
16115;SDS011;8162;47.104;15.432;2023-03-14T10:05:53;2.20;;;1.60;;
16115;SDS011;8162;47.104;15.432;2023-03-14T10:08:55;4.10;;;1.70;;
16115;SDS011;8162;47.104;15.432;2023-03-14T10:11:57;3.53;;;1.73;;
16115;SDS011;8162;47.104;15.432;2023-03-14T10:15:06;3.47;;;2.10;;
16115;SDS011;8162;47.104;15.432;2023-03-14T10:18:11;4.70;;;2.73;;
16115;SDS011;8162;47.104;15.432;2023-03-14T10:21:31;5.10;;;2.47;;
16115;SDS011;8162;47.104;15.432;2023-03-14T10:24:35;5.80;;;2.10;;
16115;SDS011;8162;47.104;15.432;2023-03-14T10:27:36;5.13;;;2.30;;
16115;SDS011;8162;47.104;15.432;2023-03-14T10:30:44;2.70;;;1.80;;
16115;SDS011;8162;47.104;15.432;2023-03-14T10:34:04;4.07;;;1.60;;
16115;SDS011;8162;47.104;15.432;2023-03-14T10:37:22;5.30;;;1.77;;
16115;SDS011;8162;47.104;15.432;2023-03-14T10:40:27;3.23;;;1.70;;
16115;SDS011;8162;47.104;15.432;2023-03-14T10:43:33;4.00;;;2.10;;
16115;SDS011;8162;47.104;15.432;2023-03-14T10:46:34;2.37;;;1.70;;
16115;SDS011;8162;47.104;15.432;2023-03-14T10:49:36;2.13;;;1.70;;
16115;SDS011;8162;47.104;15.432;2023-03-14T10:52:38;2.50;;;1.97;;
16115;SDS011;8162;47.104;15.432;2023-03-14T10:55:48;4.50;;;2.53;;
16115;SDS011;8162;47.104;15.432;2023-03-14T10:58:50;2.77;;;1.50;;
16115;SDS011;8162;47.104;15.432;2023-03-14T11:11:19;1.63;;;0.60;;
16115;SDS011;8162;47.104;15.432;2023-03-14T11:17:51;0.70;;;0.40;;
16115;SDS011;8162;47.104;15.432;2023-03-14T11:24:23;0.60;;;0.40;;
16115;SDS011;8162;47.104;15.432;2023-03-14T11:27:17;0.47;;;0.30;;
16115;SDS011;8162;47.104;15.432;2023-03-14T11:30:41;0.20;;;0.20;;
16115;SDS011;8162;47.104;15.432;2023-03-14T11:36:54;0.63;;;0.40;;
16115;SDS011;8162;47.104;15.432;2023-03-14T11:40:14;5.07;;;0.63;;
16115;SDS011;8162;47.104;15.432;2023-03-14T11:43:16;0.50;;;0.40;;
16115;SDS011;8162;47.104;15.432;2023-03-14T11:46:21;0.67;;;0.40;;
16115;SDS011;8162;47.104;15.432;2023-03-14T11:52:37;1.40;;;0.30;;
16115;SDS011;8162;47.104;15.432;2023-03-14T11:55:39;0.27;;;0.27;;
16115;SDS011;8162;47.104;15.432;2023-03-14T11:58:43;0.47;;;0.40;;
16115;SDS011;8162;47.104;15.432;2023-03-14T12:01:57;0.63;;;0.30;;
16115;SDS011;8162;47.104;15.432;2023-03-14T12:08:38;0.30;;;0.30;;
16115;SDS011;8162;47.104;15.432;2023-03-14T12:11:43;0.40;;;0.40;;
16115;SDS011;8162;47.104;15.432;2023-03-14T12:14:46;0.30;;;0.30;;
16115;SDS011;8162;47.104;15.432;2023-03-14T12:17:55;0.20;;;0.20;;
16115;SDS011;8162;47.104;15.432;2023-03-14T12:21:00;0.40;;;0.40;;
16115;SDS011;8162;47.104;15.432;2023-03-14T12:24:02;0.50;;;0.50;;
16115;SDS011;8162;47.104;15.432;2023-03-14T12:27:04;1.40;;;0.50;;
16115;SDS011;8162;47.104;15.432;2023-03-14T12:30:29;0.60;;;0.47;;
16115;SDS011;8162;47.104;15.432;2023-03-14T12:33:30;0.53;;;0.30;;
16115;SDS011;8162;47.104;15.432;2023-03-14T12:37:14;1.63;;;0.47;;
16115;SDS011;8162;47.104;15.432;2023-03-14T12:40:13;0.83;;;0.40;;
16115;SDS011;8162;47.104;15.432;2023-03-14T12:43:24;0.80;;;0.50;;
16115;SDS011;8162;47.104;15.432;2023-03-14T12:46:26;0.57;;;0.50;;
16115;SDS011;8162;47.104;15.432;2023-03-14T12:49:31;0.43;;;0.30;;
16115;SDS011;8162;47.104;15.432;2023-03-14T12:52:36;0.47;;;0.47;;
16115;SDS011;8162;47.104;15.432;2023-03-14T12:55:48;0.67;;;0.50;;
16115;SDS011;8162;47.104;15.432;2023-03-14T12:58:58;0.67;;;0.30;;
16115;SDS011;8162;47.104;15.432;2023-03-14T13:12:00;0.53;;;0.30;;
16115;SDS011;8162;47.104;15.432;2023-03-14T13:15:02;1.07;;;0.53;;
16115;SDS011;8162;47.104;15.432;2023-03-14T13:21:15;1.77;;;0.40;;
16115;SDS011;8162;47.104;15.432;2023-03-14T13:24:21;1.37;;;0.50;;
16115;SDS011;8162;47.104;15.432;2023-03-14T13:27:23;4.47;;;0.93;;
16115;SDS011;8162;47.104;15.432;2023-03-14T13:30:26;0.60;;;0.60;;
16115;SDS011;8162;47.104;15.432;2023-03-14T13:33:27;1.70;;;0.50;;
16115;SDS011;8162;47.104;15.432;2023-03-14T13:36:28;1.17;;;0.80;;
16115;SDS011;8162;47.104;15.432;2023-03-14T13:39:30;2.00;;;0.93;;
16115;SDS011;8162;47.104;15.432;2023-03-14T13:42:32;1.30;;;0.70;;
16115;SDS011;8162;47.104;15.432;2023-03-14T13:45:41;2.90;;;1.00;;
16115;SDS011;8162;47.104;15.432;2023-03-14T13:48:46;2.07;;;0.93;;
16115;SDS011;8162;47.104;15.432;2023-03-14T13:51:48;2.23;;;0.80;;
16115;SDS011;8162;47.104;15.432;2023-03-14T13:54:53;4.27;;;1.50;;
16115;SDS011;8162;47.104;15.432;2023-03-14T13:57:54;3.33;;;1.07;;
16115;SDS011;8162;47.104;15.432;2023-03-14T14:00:57;1.57;;;0.90;;
16115;SDS011;8162;47.104;15.432;2023-03-14T14:04:06;1.67;;;1.00;;
16115;SDS011;8162;47.104;15.432;2023-03-14T14:07:08;1.63;;;0.80;;
16115;SDS011;8162;47.104;15.432;2023-03-14T14:10:11;2.40;;;0.93;;
16115;SDS011;8162;47.104;15.432;2023-03-14T14:13:14;3.17;;;1.10;;
16115;SDS011;8162;47.104;15.432;2023-03-14T14:16:19;2.27;;;1.03;;
16115;SDS011;8162;47.104;15.432;2023-03-14T14:19:22;1.97;;;1.10;;
16115;SDS011;8162;47.104;15.432;2023-03-14T14:22:25;1.60;;;0.83;;
16115;SDS011;8162;47.104;15.432;2023-03-14T14:25:26;1.50;;;0.93;;
16115;SDS011;8162;47.104;15.432;2023-03-14T14:28:33;1.00;;;0.73;;
16115;SDS011;8162;47.104;15.432;2023-03-14T14:31:35;1.00;;;0.90;;
16115;SDS011;8162;47.104;15.432;2023-03-14T14:34:46;1.10;;;0.90;;
16115;SDS011;8162;47.104;15.432;2023-03-14T14:37:50;0.90;;;0.70;;
16115;SDS011;8162;47.104;15.432;2023-03-14T14:40:58;2.60;;;1.10;;
16115;SDS011;8162;47.104;15.432;2023-03-14T14:44:00;1.37;;;1.07;;
16115;SDS011;8162;47.104;15.432;2023-03-14T14:47:03;3.60;;;1.10;;
16115;SDS011;8162;47.104;15.432;2023-03-14T14:50:04;1.30;;;1.10;;
16115;SDS011;8162;47.104;15.432;2023-03-14T14:53:19;2.40;;;1.03;;
16115;SDS011;8162;47.104;15.432;2023-03-14T14:56:25;1.77;;;0.80;;
16115;SDS011;8162;47.104;15.432;2023-03-14T14:59:27;1.77;;;1.00;;
16115;SDS011;8162;47.104;15.432;2023-03-14T15:05:29;1.83;;;1.13;;
16115;SDS011;8162;47.104;15.432;2023-03-14T15:08:36;1.10;;;0.87;;
16115;SDS011;8162;47.104;15.432;2023-03-14T15:11:37;1.30;;;0.83;;
16115;SDS011;8162;47.104;15.432;2023-03-14T15:14:39;3.13;;;0.97;;
16115;SDS011;8162;47.104;15.432;2023-03-14T15:17:40;2.53;;;1.07;;
16115;SDS011;8162;47.104;15.432;2023-03-14T15:20:41;0.77;;;0.70;;
16115;SDS011;8162;47.104;15.432;2023-03-14T15:23:42;2.10;;;1.10;;
16115;SDS011;8162;47.104;15.432;2023-03-14T15:26:43;1.87;;;0.90;;
16115;SDS011;8162;47.104;15.432;2023-03-14T15:29:44;1.83;;;1.17;;
16115;SDS011;8162;47.104;15.432;2023-03-14T15:32:45;2.30;;;1.10;;
16115;SDS011;8162;47.104;15.432;2023-03-14T15:35:47;1.00;;;0.83;;
16115;SDS011;8162;47.104;15.432;2023-03-14T15:38:49;2.27;;;1.20;;
16115;SDS011;8162;47.104;15.432;2023-03-14T15:41:50;1.93;;;1.10;;
16115;SDS011;8162;47.104;15.432;2023-03-14T15:44:51;1.03;;;0.90;;
16115;SDS011;8162;47.104;15.432;2023-03-14T15:47:52;2.30;;;1.00;;
16115;SDS011;8162;47.104;15.432;2023-03-14T15:50:53;0.63;;;0.63;;
16115;SDS011;8162;47.104;15.432;2023-03-14T15:53:54;0.67;;;0.67;;
16115;SDS011;8162;47.104;15.432;2023-03-14T15:56:56;0.87;;;0.67;;
16115;SDS011;8162;47.104;15.432;2023-03-14T15:59:57;1.20;;;0.60;;
16115;SDS011;8162;47.104;15.432;2023-03-14T16:02:58;2.63;;;0.80;;
16115;SDS011;8162;47.104;15.432;2023-03-14T16:06:01;1.53;;;1.00;;
16115;SDS011;8162;47.104;15.432;2023-03-14T16:09:02;1.80;;;0.90;;
16115;SDS011;8162;47.104;15.432;2023-03-14T16:12:04;0.97;;;0.67;;
16115;SDS011;8162;47.104;15.432;2023-03-14T16:15:07;1.23;;;0.80;;
16115;SDS011;8162;47.104;15.432;2023-03-14T16:18:09;1.80;;;0.80;;
16115;SDS011;8162;47.104;15.432;2023-03-14T16:21:11;1.03;;;0.90;;
16115;SDS011;8162;47.104;15.432;2023-03-14T16:24:12;1.17;;;1.00;;
16115;SDS011;8162;47.104;15.432;2023-03-14T16:27:14;3.63;;;1.17;;
16115;SDS011;8162;47.104;15.432;2023-03-14T16:30:15;1.53;;;1.00;;
16115;SDS011;8162;47.104;15.432;2023-03-14T16:33:16;2.63;;;2.00;;
16115;SDS011;8162;47.104;15.432;2023-03-14T16:36:17;1.63;;;1.10;;
16115;SDS011;8162;47.104;15.432;2023-03-14T16:39:18;2.20;;;1.50;;
16115;SDS011;8162;47.104;15.432;2023-03-14T16:42:20;1.80;;;1.33;;
16115;SDS011;8162;47.104;15.432;2023-03-14T16:45:21;2.97;;;1.90;;
16115;SDS011;8162;47.104;15.432;2023-03-14T16:48:22;4.43;;;1.67;;
16115;SDS011;8162;47.104;15.432;2023-03-14T16:51:23;2.97;;;2.23;;
16115;SDS011;8162;47.104;15.432;2023-03-14T16:54:24;3.70;;;1.53;;
16115;SDS011;8162;47.104;15.432;2023-03-14T16:57:26;2.13;;;1.40;;
16115;SDS011;8162;47.104;15.432;2023-03-14T17:00:27;1.67;;;1.40;;
16115;SDS011;8162;47.104;15.432;2023-03-14T17:03:28;2.27;;;1.60;;
16115;SDS011;8162;47.104;15.432;2023-03-14T17:06:29;2.00;;;1.10;;
16115;SDS011;8162;47.104;15.432;2023-03-14T17:09:30;1.80;;;1.20;;
16115;SDS011;8162;47.104;15.432;2023-03-14T17:12:31;1.90;;;1.17;;
16115;SDS011;8162;47.104;15.432;2023-03-14T17:15:32;1.10;;;1.00;;
16115;SDS011;8162;47.104;15.432;2023-03-14T17:18:36;1.13;;;0.90;;
16115;SDS011;8162;47.104;15.432;2023-03-14T17:21:37;2.07;;;1.30;;
16115;SDS011;8162;47.104;15.432;2023-03-14T17:24:38;1.30;;;1.10;;
16115;SDS011;8162;47.104;15.432;2023-03-14T17:27:39;1.37;;;1.20;;
16115;SDS011;8162;47.104;15.432;2023-03-14T17:30:40;0.97;;;0.80;;
16115;SDS011;8162;47.104;15.432;2023-03-14T17:33:42;1.37;;;1.00;;
16115;SDS011;8162;47.104;15.432;2023-03-14T17:36:43;3.60;;;2.37;;
16115;SDS011;8162;47.104;15.432;2023-03-14T17:39:44;3.17;;;2.40;;
16115;SDS011;8162;47.104;15.432;2023-03-14T17:42:46;3.53;;;2.53;;
16115;SDS011;8162;47.104;15.432;2023-03-14T17:45:47;2.20;;;1.63;;
16115;SDS011;8162;47.104;15.432;2023-03-14T17:48:48;2.80;;;1.37;;
16115;SDS011;8162;47.104;15.432;2023-03-14T17:51:49;4.93;;;1.20;;
16115;SDS011;8162;47.104;15.432;2023-03-14T17:54:51;1.00;;;0.90;;
16115;SDS011;8162;47.104;15.432;2023-03-14T17:57:52;1.60;;;1.00;;
16115;SDS011;8162;47.104;15.432;2023-03-14T18:00:54;1.70;;;1.17;;
16115;SDS011;8162;47.104;15.432;2023-03-14T18:03:56;1.20;;;1.07;;
16115;SDS011;8162;47.104;15.432;2023-03-14T18:06:57;2.03;;;1.77;;
16115;SDS011;8162;47.104;15.432;2023-03-14T18:10:01;2.57;;;1.50;;
16115;SDS011;8162;47.104;15.432;2023-03-14T18:13:03;4.43;;;1.40;;
16115;SDS011;8162;47.104;15.432;2023-03-14T18:16:04;2.10;;;1.40;;
16115;SDS011;8162;47.104;15.432;2023-03-14T18:19:06;1.27;;;1.10;;
16115;SDS011;8162;47.104;15.432;2023-03-14T18:22:07;1.63;;;1.40;;
16115;SDS011;8162;47.104;15.432;2023-03-14T18:25:09;1.20;;;0.90;;
16115;SDS011;8162;47.104;15.432;2023-03-14T18:28:10;3.00;;;1.53;;
16115;SDS011;8162;47.104;15.432;2023-03-14T18:31:12;3.23;;;1.77;;
16115;SDS011;8162;47.104;15.432;2023-03-14T18:34:15;2.23;;;1.70;;
16115;SDS011;8162;47.104;15.432;2023-03-14T18:37:18;2.40;;;2.10;;
16115;SDS011;8162;47.104;15.432;2023-03-14T18:40:19;2.70;;;1.77;;
16115;SDS011;8162;47.104;15.432;2023-03-14T18:43:21;3.27;;;1.50;;
16115;SDS011;8162;47.104;15.432;2023-03-14T18:46:22;2.13;;;1.07;;
16115;SDS011;8162;47.104;15.432;2023-03-14T18:49:23;1.30;;;1.00;;
16115;SDS011;8162;47.104;15.432;2023-03-14T18:52:25;1.57;;;1.30;;
16115;SDS011;8162;47.104;15.432;2023-03-14T18:55:27;1.50;;;1.07;;
16115;SDS011;8162;47.104;15.432;2023-03-14T18:58:30;1.90;;;1.27;;
16115;SDS011;8162;47.104;15.432;2023-03-14T19:01:32;2.20;;;1.10;;
16115;SDS011;8162;47.104;15.432;2023-03-14T19:04:33;1.93;;;1.10;;
16115;SDS011;8162;47.104;15.432;2023-03-14T19:07:35;2.27;;;1.20;;
16115;SDS011;8162;47.104;15.432;2023-03-14T19:10:36;3.27;;;1.27;;
16115;SDS011;8162;47.104;15.432;2023-03-14T19:13:38;1.23;;;1.13;;